Time;durP1;ratioP1;P1;durP2;ratioP2;P2;SDS_P1;SDS_P2;PMS_P1;PMS_P2;Temp;Humidity;BMP_temperature;BMP_pressure;BME280_temperature;BME280_humidity;BME280_pressure;Samples;Min_cycle;Max_cycle;Signal;HPM_P1;HPM_P2
2023/08/30 00:01:01;;;;;;;;;5.00;3.67;;;;;16.16;65.98;100800.16;5029031;28;9019;-68
2023/08/30 00:03:27;;;;;;;;;3.33;3.33;;;;;16.18;66.32;100795.34;5017529;28;9317;-68
2023/08/30 00:05:55;;;;;;;;;1.33;1.33;;;;;16.20;66.13;100804.06;5025660;28;9084;-69
2023/08/30 00:08:21;;;;;;;;;5.33;5.33;;;;;16.19;65.81;100795.09;5024038;28;8992;-68
2023/08/30 00:10:48;;;;;;;;;6.33;5.00;;;;;16.20;65.82;100785.88;5016040;28;9179;-69
2023/08/30 00:13:15;;;;;;;;;3.00;3.00;;;;;16.21;66.14;100775.88;5027962;28;9114;-69
2023/08/30 00:15:42;;;;;;;;;5.33;4.00;;;;;16.24;66.22;100781.66;5027046;28;9086;-68
2023/08/30 00:18:09;;;;;;;;;2.33;2.33;;;;;16.25;66.08;100777.06;5024903;28;9177;-68
2023/08/30 00:20:36;;;;;;;;;4.00;4.00;;;;;16.28;66.36;100779.28;5031601;28;9130;-68
2023/08/30 00:23:03;;;;;;;;;5.67;5.00;;;;;16.30;66.33;100769.03;5020375;28;9156;-68
2023/08/30 00:25:29;;;;;;;;;6.33;6.00;;;;;16.27;66.32;100773.03;5016987;28;9288;-67
2023/08/30 00:27:56;;;;;;;;;2.00;2.00;;;;;16.27;66.78;100764.88;5021576;28;8986;-68
2023/08/30 00:30:22;;;;;;;;;5.33;5.33;;;;;16.26;67.16;100767.84;5020525;28;8994;-68
2023/08/30 00:32:49;;;;;;;;;5.00;3.67;;;;;16.26;66.88;100765.13;5029997;28;8988;-69
2023/08/30 00:35:15;;;;;;;;;5.67;5.67;;;;;16.25;67.41;100755.34;5016189;28;9025;-69
2023/08/30 00:37:42;;;;;;;;;6.33;6.33;;;;;16.21;67.26;100754.97;5022548;28;9255;-69
2023/08/30 00:40:08;;;;;;;;;4.00;4.00;;;;;16.24;67.66;100759.09;5024101;28;9863;-68
2023/08/30 00:42:36;;;;;;;;;5.67;5.67;;;;;16.22;67.38;100751.19;5027519;28;9199;-69
2023/08/30 00:45:04;;;;;;;;;6.67;6.67;;;;;16.20;67.48;100752.47;5028488;28;9056;-68
2023/08/30 00:47:32;;;;;;;;;6.67;6.00;;;;;16.19;67.80;100751.66;5024110;28;8990;-68
2023/08/30 00:49:58;;;;;;;;;5.67;5.67;;;;;16.19;67.73;100745.41;5027613;28;9806;-68
2023/08/30 00:52:25;;;;;;;;;6.00;5.33;;;;;16.19;67.59;100756.25;5024791;28;9163;-69
2023/08/30 00:54:51;;;;;;;;;5.33;5.33;;;;;16.21;67.85;100748.72;5022716;28;9200;-69
2023/08/30 00:57:19;;;;;;;;;6.33;6.33;;;;;16.17;67.45;100745.66;5027562;28;9064;-69
2023/08/30 00:59:46;;;;;;;;;2.67;2.33;;;;;16.15;67.63;100741.50;5027674;28;8928;-69
2023/08/30 01:02:13;;;;;;;;;4.33;4.00;;;;;16.14;67.79;100743.38;5019969;28;9097;-68
2023/08/30 01:04:40;;;;;;;;;4.00;3.67;;;;;16.15;67.34;100736.06;5025373;28;9005;-69
2023/08/30 01:07:06;;;;;;;;;3.00;3.00;;;;;16.15;67.47;100725.19;5025170;28;9066;-68
2023/08/30 01:09:33;;;;;;;;;3.67;3.67;;;;;16.06;67.28;100730.16;5029636;28;8936;-69
2023/08/30 01:12:33;;;;;;;;;5.00;5.00;;;;;16.09;67.55;100735.13;5030642;28;8912;-68
2023/08/30 01:15:09;;;;;;;;;3.00;2.33;;;;;16.12;67.71;100720.22;5012839;28;9094;-68
2023/08/30 01:17:41;;;;;;;;;6.00;6.00;;;;;16.12;67.60;100722.94;5026133;28;9022;-69
2023/08/30 01:20:18;;;;;;;;;6.00;5.00;;;;;16.13;67.52;100721.91;5025649;28;9013;-67
2023/08/30 01:23:17;;;;;;;;;6.33;3.67;;;;;16.16;67.27;100718.69;5028180;28;9143;-67
2023/08/30 01:26:03;;;;;;;;;12.33;9.33;;;;;16.14;67.35;100718.94;5030122;28;9117;-68
2023/08/30 01:28:32;;;;;;;;;7.33;7.00;;;;;16.11;67.37;100715.88;5029467;28;9056;-68
2023/08/30 01:31:00;;;;;;;;;8.00;6.67;;;;;16.06;67.29;100709.25;5030458;28;9308;-68
2023/08/30 01:33:27;;;;;;;;;5.00;3.00;;;;;16.09;67.67;100718.00;5024294;28;9910;-68
2023/08/30 01:35:56;;;;;;;;;10.67;8.00;;;;;16.10;67.44;100717.75;5028470;28;9049;-68
2023/08/30 01:38:24;;;;;;;;;8.67;6.00;;;;;16.07;67.56;100723.66;5015862;28;9084;-68
2023/08/30 01:40:53;;;;;;;;;9.00;9.00;;;;;16.06;67.79;100720.13;5009163;28;9200;-68
2023/08/30 01:43:21;;;;;;;;;6.00;6.00;;;;;16.09;67.82;100720.72;5018925;28;9318;-68
2023/08/30 01:45:47;;;;;;;;;9.33;9.33;;;;;16.07;67.94;100723.66;5021990;28;10194;-68
2023/08/30 01:48:17;;;;;;;;;10.33;8.33;;;;;15.99;67.92;100710.41;5030106;28;9247;-68
2023/08/30 01:50:44;;;;;;;;;9.33;9.33;;;;;15.97;68.00;100707.94;5018246;28;9193;-69
2023/08/30 01:53:12;;;;;;;;;10.67;10.67;;;;;15.93;68.26;100708.66;5020273;28;9320;-69
2023/08/30 01:55:39;;;;;;;;;8.33;7.00;;;;;15.94;67.97;100702.97;5027395;28;9329;-69
2023/08/30 01:58:07;;;;;;;;;9.00;7.67;;;;;16.00;68.08;100703.91;5008635;28;9217;-67
2023/08/30 02:00:37;;;;;;;;;11.67;10.67;;;;;16.02;68.06;100704.53;5023151;28;9254;-67
2023/08/30 02:03:09;;;;;;;;;11.67;11.67;;;;;15.96;68.15;100697.31;5011767;28;9301;-69
2023/08/30 02:05:43;;;;;;;;;8.67;8.67;;;;;15.94;68.47;100697.53;5023875;28;9322;-68
2023/08/30 02:08:16;;;;;;;;;7.67;7.00;;;;;15.97;68.43;100693.53;5028909;28;9366;-68
2023/08/30 02:10:52;;;;;;;;;9.00;9.00;;;;;15.96;68.37;100692.72;5029961;28;9296;-68
2023/08/30 02:13:24;;;;;;;;;9.67;7.67;;;;;15.96;68.13;100698.16;5010016;28;9166;-67
2023/08/30 02:15:54;;;;;;;;;11.33;10.67;;;;;15.94;68.30;100685.88;5037774;28;9249;-69
2023/08/30 02:18:21;;;;;;;;;11.50;10.25;;;;;15.94;68.19;100683.16;5028893;28;9224;-68
2023/08/30 02:20:51;;;;;;;;;8.67;8.67;;;;;15.93;68.50;100684.22;5029190;28;10279;-68
2023/08/30 02:23:18;;;;;;;;;9.67;6.67;;;;;15.92;68.14;100682.53;5022760;28;9926;-69
2023/08/30 02:25:44;;;;;;;;;12.00;8.67;;;;;15.92;68.81;100682.53;5026096;28;9252;-69
2023/08/30 02:28:11;;;;;;;;;9.00;7.33;;;;;15.92;68.73;100680.69;5028048;28;9390;-69
2023/08/30 02:30:39;;;;;;;;;9.00;7.00;;;;;15.92;68.39;100680.69;5029668;28;9060;-68
2023/08/30 02:33:06;;;;;;;;;11.00;6.00;;;;;15.94;68.22;100675.81;5025439;28;9226;-68
2023/08/30 02:35:33;;;;;;;;;11.33;10.67;;;;;15.89;68.25;100677.59;5029695;28;9239;-69
2023/08/30 02:37:59;;;;;;;;;6.00;6.00;;;;;15.89;68.87;100674.88;5027315;28;9160;-68
2023/08/30 02:40:26;;;;;;;;;9.33;7.33;;;;;15.91;69.05;100673.56;5017230;28;9185;-68
2023/08/30 02:42:52;;;;;;;;;5.00;5.00;;;;;15.94;68.75;100669.56;5029810;28;9074;-69
2023/08/30 02:45:19;;;;;;;;;12.33;8.67;;;;;15.94;68.58;100670.41;5008296;28;9155;-68
2023/08/30 02:47:46;;;;;;;;;7.33;7.00;;;;;15.93;68.87;100668.75;4996062;28;9113;-68
2023/08/30 02:50:12;;;;;;;;;11.00;8.00;;;;;15.91;68.78;100659.16;5023290;28;9929;-69
2023/08/30 02:52:39;;;;;;;;;15.00;11.67;;;;;15.88;68.90;100655.06;5028020;28;9231;-69
2023/08/30 02:55:06;;;;;;;;;13.33;11.33;;;;;15.85;69.00;100652.81;5028257;28;10026;-67
2023/08/30 02:57:32;;;;;;;;;14.33;11.33;;;;;15.87;69.12;100650.66;5027249;28;9298;-68
2023/08/30 02:59:59;;;;;;;;;10.33;7.00;;;;;15.88;69.05;100646.06;5011430;28;9291;-69
2023/08/30 03:02:26;;;;;;;;;7.67;7.00;;;;;15.90;69.16;100633.91;5022640;28;9193;-68
2023/08/30 03:04:52;;;;;;;;;5.33;5.33;;;;;15.92;68.91;100636.38;5029182;28;9247;-68
2023/08/30 03:07:20;;;;;;;;;8.00;4.33;;;;;15.92;69.32;100641.81;5025746;28;9158;-68
2023/08/30 03:09:52;;;;;;;;;9.33;8.00;;;;;15.93;69.27;100636.16;5021511;28;9171;-69
2023/08/30 03:12:20;;;;;;;;;11.00;10.67;;;;;15.90;68.91;100630.38;5027303;28;9347;-68
2023/08/30 03:14:47;;;;;;;;;10.00;8.00;;;;;15.90;69.38;100633.09;5023004;28;9394;-68
2023/08/30 03:17:14;;;;;;;;;9.33;6.67;;;;;15.89;69.20;100631.44;5028422;28;9397;-69
2023/08/30 03:19:40;;;;;;;;;8.33;6.00;;;;;15.88;69.28;100624.34;5027605;28;9235;-68
2023/08/30 03:22:08;;;;;;;;;10.00;9.33;;;;;15.87;69.47;100623.53;5021522;28;9354;-68
2023/08/30 03:24:35;;;;;;;;;14.00;11.00;;;;;15.82;69.14;100613.38;5036337;28;9310;-68
2023/08/30 03:27:01;;;;;;;;;12.67;9.33;;;;;15.78;69.74;100614.91;5023675;28;9997;-69
2023/08/30 03:29:29;;;;;;;;;11.67;11.67;;;;;15.76;69.58;100611.63;5011033;28;9321;-69
2023/08/30 03:31:55;;;;;;;;;14.33;13.00;;;;;15.72;69.41;100609.59;5010957;28;9271;-68
2023/08/30 03:34:22;;;;;;;;;15.25;13.25;;;;;15.70;69.64;100607.09;5024716;28;9256;-68
2023/08/30 03:36:53;;;;;;;;;16.00;11.00;;;;;15.67;69.85;100602.13;5029509;28;9477;-68
2023/08/30 03:39:21;;;;;;;;;12.67;12.00;;;;;15.60;70.10;100601.41;5022227;28;9294;-69
2023/08/30 03:41:47;;;;;;;;;12.00;9.33;;;;;15.61;69.72;100597.63;5004698;28;9251;-68
2023/08/30 03:44:14;;;;;;;;;17.25;14.25;;;;;15.58;69.74;100593.47;5026271;28;9248;-68
2023/08/30 03:46:40;;;;;;;;;12.25;12.00;;;;;15.59;70.09;100586.16;5022355;28;9473;-68
2023/08/30 03:49:07;;;;;;;;;9.00;9.00;;;;;15.63;69.84;100584.63;5026779;28;10190;-67
2023/08/30 03:51:33;;;;;;;;;8.00;8.00;;;;;15.66;69.66;100581.50;5022348;28;10086;-67
2023/08/30 03:54:00;;;;;;;;;14.00;12.67;;;;;15.66;69.83;100588.81;5027131;28;9359;-67
2023/08/30 03:56:27;;;;;;;;;12.00;11.00;;;;;15.67;69.63;100587.75;5029939;28;9304;-68
2023/08/30 03:58:53;;;;;;;;;7.67;7.67;;;;;15.68;69.48;100578.56;5023446;28;9456;-69
2023/08/30 04:01:20;;;;;;;;;9.00;8.00;;;;;15.72;69.51;100575.16;5022878;28;9414;-68
2023/08/30 04:03:46;;;;;;;;;4.00;4.00;;;;;15.72;69.41;100577.03;5018103;28;9243;-68
2023/08/30 04:06:13;;;;;;;;;8.00;8.00;;;;;15.66;69.49;100581.50;5007240;28;9196;-68
2023/08/30 04:08:39;;;;;;;;;8.00;8.00;;;;;15.66;69.58;100584.22;5025782;28;9335;-68
2023/08/30 04:11:06;;;;;;;;;9.75;9.50;;;;;15.60;69.59;100582.41;5027919;28;9406;-67
2023/08/30 04:13:33;;;;;;;;;9.33;8.33;;;;;15.62;69.78;100593.84;5030936;28;9401;-68
2023/08/30 04:16:00;;;;;;;;;9.67;9.67;;;;;15.59;69.87;100588.88;5020298;28;9251;-67
2023/08/30 04:18:26;;;;;;;;;9.33;8.67;;;;;15.61;69.46;100591.38;5020807;28;9995;-68
2023/08/30 04:20:52;;;;;;;;;11.00;11.00;;;;;15.61;69.43;100586.78;5022811;28;9449;-68
2023/08/30 04:23:19;;;;;;;;;15.25;11.50;;;;;15.59;69.46;100583.44;5021088;28;9523;-68
2023/08/30 04:25:46;;;;;;;;;11.00;7.67;;;;;15.59;69.73;100578.84;5028706;28;9483;-68
2023/08/30 04:28:12;;;;;;;;;12.00;12.00;;;;;15.56;69.66;100581.22;5024164;28;10094;-68
2023/08/30 04:30:39;;;;;;;;;14.50;11.25;;;;;15.60;69.44;100582.41;5027503;28;9309;-68
2023/08/30 04:33:07;;;;;;;;;17.33;12.67;;;;;15.61;69.13;100575.91;5029180;28;9445;-68
2023/08/30 04:35:33;;;;;;;;;14.00;9.67;;;;;15.56;69.12;100564.94;5025431;28;9475;-68
2023/08/30 04:38:01;;;;;;;;;13.67;13.00;;;;;15.52;69.09;100566.47;5017168;28;9321;-68
2023/08/30 04:40:28;;;;;;;;;14.33;11.00;;;;;15.52;69.14;100566.47;5019972;28;9329;-68
2023/08/30 04:42:55;;;;;;;;;11.33;11.33;;;;;15.53;69.11;100547.25;5028879;28;9382;-68
2023/08/30 04:45:23;;;;;;;;;13.00;9.67;;;;;15.54;68.62;100553.50;5025282;28;9465;-68
2023/08/30 04:47:50;;;;;;;;;12.00;9.67;;;;;15.54;68.91;100545.34;5024019;28;9380;-69
2023/08/30 04:50:17;;;;;;;;;14.00;13.75;;;;;15.53;68.68;100541.00;5025435;28;9292;-67
2023/08/30 04:52:43;;;;;;;;;16.25;15.00;;;;;15.48;68.77;100538.16;5018836;28;10152;-67
2023/08/30 04:55:10;;;;;;;;;14.00;11.50;;;;;15.49;68.73;100537.91;5016804;28;10404;-69
2023/08/30 04:57:37;;;;;;;;;15.00;12.50;;;;;15.52;68.73;100534.75;5028855;28;9463;-68
2023/08/30 05:00:05;;;;;;;;;14.33;11.33;;;;;15.56;68.56;100535.09;5022571;28;9604;-66
2023/08/30 05:02:32;;;;;;;;;7.00;6.67;;;;;15.56;68.33;100524.25;5017871;28;9378;-67
2023/08/30 05:05:03;;;;;;;;;15.50;12.75;;;;;15.52;68.14;100531.22;5016205;28;9388;-67
2023/08/30 05:07:30;;;;;;;;;13.75;11.00;;;;;15.49;68.12;100529.78;5032934;28;9531;-68
2023/08/30 05:09:56;;;;;;;;;9.50;9.50;;;;;15.48;68.32;100535.47;5020969;28;9450;-68
2023/08/30 05:12:23;;;;;;;;;9.25;9.00;;;;;15.49;68.08;100534.38;5004193;28;9548;-69
2023/08/30 05:14:49;;;;;;;;;9.00;9.00;;;;;15.53;68.57;100541.00;5028113;28;9477;-68
2023/08/30 05:17:16;;;;;;;;;9.50;9.50;;;;;15.53;68.07;100538.28;5020768;28;9338;-69
2023/08/30 05:19:43;;;;;;;;;15.50;12.25;;;;;15.50;68.26;100542.28;5020179;28;9360;-68
2023/08/30 05:22:10;;;;;;;;;10.00;10.00;;;;;15.51;68.57;100540.38;5029489;28;9548;-68
2023/08/30 05:24:36;;;;;;;;;13.00;12.00;;;;;15.54;68.30;100553.50;5012932;28;9310;-68
2023/08/30 05:27:03;;;;;;;;;16.00;14.25;;;;;15.48;68.08;100552.56;5030436;28;9457;-69
2023/08/30 05:29:37;;;;;;;;;15.25;15.25;;;;;15.41;67.46;100554.53;5024604;28;9596;-68
2023/08/30 05:32:04;;;;;;;;;11.75;11.75;;;;;15.42;67.64;100556.19;5030266;28;9622;-68
2023/08/30 05:35:06;;;;;;;;;13.50;11.75;;;;;15.43;67.35;100548.88;5023887;28;10139;-67
2023/08/30 05:37:48;;;;;;;;;10.33;9.67;;;;;15.45;67.28;100544.06;5020726;28;9472;-68
2023/08/30 05:40:24;;;;;;;;;10.00;8.00;;;;;15.44;67.14;100543.22;5027873;28;9337;-69
2023/08/30 05:42:51;;;;;;;;;19.67;10.67;;;;;15.39;66.78;100534.94;5030450;28;9235;-69
2023/08/30 05:45:21;;;;;;;;;13.00;11.00;;;;;15.40;66.84;100539.34;5029129;28;9387;-68
2023/08/30 05:47:48;;;;;;;;;20.33;14.00;;;;;15.37;66.88;100530.84;5029211;28;9371;-69
2023/08/30 05:50:14;;;;;;;;;16.00;13.00;;;;;15.36;67.14;100534.63;5030154;28;9395;-67
2023/08/30 05:52:41;;;;;;;;;13.50;13.50;;;;;15.27;67.09;100531.38;5029081;28;9397;-68
2023/08/30 05:55:09;;;;;;;;;19.50;15.75;;;;;15.21;67.27;100527.72;5012813;28;10262;-69
2023/08/30 05:57:36;;;;;;;;;12.67;11.00;;;;;15.15;67.98;100530.53;5029032;28;9558;-68
2023/08/30 06:00:04;;;;;;;;;12.00;10.67;;;;;15.14;68.57;100528.88;5028808;28;9384;-68
2023/08/30 06:02:40;;;;;;;;;11.00;10.00;;;;;15.14;68.59;100531.59;5030387;28;9373;-67
2023/08/30 06:05:07;;;;;;;;;11.00;8.00;;;;;15.14;69.24;100537.84;5030139;28;9389;-68
2023/08/30 06:07:33;;;;;;;;;12.00;12.00;;;;;15.14;69.53;100528.88;5028801;28;9415;-68
2023/08/30 06:10:00;;;;;;;;;12.67;11.00;;;;;15.14;69.71;100523.47;5028901;28;9608;-68
2023/08/30 06:12:26;;;;;;;;;6.75;6.00;;;;;15.15;70.30;100523.25;5030193;28;10162;-69
2023/08/30 06:14:53;;;;;;;;;14.00;11.00;;;;;15.12;70.90;100531.84;5030004;28;9384;-67
2023/08/30 06:17:19;;;;;;;;;16.75;15.50;;;;;15.06;71.07;100527.34;5030000;28;9479;-68
2023/08/30 06:19:46;;;;;;;;;13.50;13.50;;;;;15.00;71.88;100515.53;5029677;28;10290;-68
2023/08/30 06:22:13;;;;;;;;;8.75;8.75;;;;;15.00;72.67;100517.44;5030070;28;9860;-68
2023/08/30 06:24:39;;;;;;;;;17.25;15.75;;;;;14.94;72.88;100512.91;5029810;28;9459;-68
2023/08/30 06:27:06;;;;;;;;;17.00;15.25;;;;;14.91;73.65;100506.09;5029669;28;9783;-68
2023/08/30 06:29:32;;;;;;;;;16.00;13.25;;;;;14.90;73.69;100509.84;5029630;28;9584;-68
2023/08/30 06:31:59;;;;;;;;;15.00;13.00;;;;;14.86;74.07;100505.94;5029498;28;9544;-68
2023/08/30 06:34:25;;;;;;;;;12.50;12.00;;;;;14.86;74.66;100502.41;5029775;28;10375;-70
2023/08/30 06:36:52;;;;;;;;;9.75;9.00;;;;;14.88;75.34;100498.41;5028269;28;10124;-68
2023/08/30 06:39:18;;;;;;;;;15.75;13.50;;;;;14.88;75.26;100500.31;5029939;28;9532;-69
2023/08/30 06:41:45;;;;;;;;;14.00;14.00;;;;;14.87;75.99;100483.22;5029548;28;9731;-68
2023/08/30 06:44:13;;;;;;;;;17.50;17.25;;;;;14.73;76.78;100488.00;5028499;28;10382;-69
2023/08/30 06:46:40;;;;;;;;;15.00;14.25;;;;;14.77;77.18;100488.34;5031772;28;9848;-67
2023/08/30 06:49:09;;;;;;;;;10.25;9.25;;;;;14.79;77.38;100476.25;5033677;28;9708;-68
2023/08/30 06:51:35;;;;;;;;;14.00;10.75;;;;;14.77;77.20;100464.78;5033140;28;9601;-69
2023/08/30 06:54:02;;;;;;;;;13.75;13.50;;;;;14.77;77.64;100464.78;5033657;28;9606;-67
2023/08/30 06:56:28;;;;;;;;;11.75;11.75;;;;;14.78;78.06;100460.19;5033287;28;10416;-68
2023/08/30 06:58:55;;;;;;;;;14.00;12.75;;;;;14.75;78.13;100458.78;5032321;28;9526;-69
2023/08/30 07:01:21;;;;;;;;;13.25;11.50;;;;;14.75;78.47;100461.50;5033148;28;9477;-69
2023/08/30 07:03:48;;;;;;;;;14.25;12.50;;;;;14.77;78.60;100472.09;5033331;28;9438;-68
2023/08/30 07:06:14;;;;;;;;;12.50;11.50;;;;;14.79;78.87;100472.72;5033152;28;10457;-68
2023/08/30 07:08:41;;;;;;;;;12.50;10.25;;;;;14.79;79.24;100470.00;5033337;28;10156;-68
2023/08/30 07:11:07;;;;;;;;;10.25;10.00;;;;;14.83;79.18;100468.47;5033162;28;9495;-69
2023/08/30 07:13:53;;;;;;;;;11.00;8.50;;;;;14.79;79.51;100459.16;5033126;28;9516;-68
2023/08/30 07:16:19;;;;;;;;;10.00;8.00;;;;;14.77;79.91;100459.38;5032979;28;9455;-69
2023/08/30 07:18:46;;;;;;;;;10.25;10.25;;;;;14.79;79.97;100462.69;5033211;28;9471;-68
2023/08/30 07:21:13;;;;;;;;;12.25;12.25;;;;;14.75;80.12;100452.56;5033064;28;9394;-67
2023/08/30 07:23:39;;;;;;;;;10.75;10.75;;;;;14.82;80.52;100453.25;5031706;28;9616;-68
2023/08/30 07:26:05;;;;;;;;;13.75;13.25;;;;;14.85;80.49;100450.09;5032738;28;9523;-68
2023/08/30 07:28:32;;;;;;;;;10.33;8.67;;;;;14.84;80.80;100451.97;5032742;28;9450;-69
2023/08/30 07:31:05;;;;;;;;;8.67;8.67;;;;;14.88;80.67;100451.53;5032601;28;9378;-69
2023/08/30 07:33:32;;;;;;;;;15.00;9.00;;;;;14.91;81.13;100445.63;5032826;28;9360;-69
2023/08/30 07:35:59;;;;;;;;;12.67;11.33;;;;;14.90;81.25;100436.66;5032599;28;9578;-67
2023/08/30 07:38:25;;;;;;;;;9.67;9.67;;;;;14.93;81.60;100443.53;5032711;28;9294;-68
2023/08/30 07:40:53;;;;;;;;;12.00;10.33;;;;;14.94;81.58;100429.72;5031957;28;9316;-69
2023/08/30 07:43:19;;;;;;;;;7.00;7.00;;;;;14.99;81.74;100435.28;5032228;28;10001;-68
2023/08/30 07:45:47;;;;;;;;;9.00;8.67;;;;;15.01;81.53;100429.63;5031941;28;9378;-69
2023/08/30 07:48:13;;;;;;;;;7.00;7.00;;;;;15.00;82.12;100427.97;5032189;28;9416;-68
2023/08/30 07:50:40;;;;;;;;;8.33;7.33;;;;;15.02;82.16;100428.56;5031651;28;9307;-68
2023/08/30 07:53:06;;;;;;;;;8.00;8.00;;;;;15.03;82.29;100432.94;5032005;28;9428;-68
2023/08/30 07:55:33;;;;;;;;;10.33;9.00;;;;;14.98;82.17;100427.38;5031961;28;9302;-69
2023/08/30 07:58:00;;;;;;;;;10.33;8.67;;;;;14.93;82.17;100438.09;5030786;28;10398;-68
2023/08/30 08:00:26;;;;;;;;;9.33;9.33;;;;;14.91;82.68;100432.06;5031635;28;9302;-68
2023/08/30 08:02:53;;;;;;;;;9.67;9.67;;;;;14.93;83.08;100429.97;5031959;28;9394;-68
2023/08/30 08:05:19;;;;;;;;;8.00;7.33;;;;;14.97;83.13;100429.25;5031679;28;9414;-69
2023/08/30 08:07:51;;;;;;;;;11.00;9.00;;;;;14.96;82.80;100429.50;5031674;28;9379;-68
2023/08/30 08:10:18;;;;;;;;;8.67;8.67;;;;;14.91;82.91;100418.53;5031572;28;9388;-69
2023/08/30 08:12:44;;;;;;;;;9.67;9.67;;;;;14.95;83.11;100428.69;5031630;28;9366;-69
2023/08/30 08:15:11;;;;;;;;;8.67;8.67;;;;;15.00;83.67;100430.69;5031713;28;9528;-68
2023/08/30 08:17:37;;;;;;;;;9.00;9.00;;;;;15.02;83.14;100418.53;5031507;28;10082;-69
2023/08/30 08:20:05;;;;;;;;;13.00;13.00;;;;;14.97;83.09;100426.56;5029981;28;9670;-69
2023/08/30 08:22:31;;;;;;;;;10.00;10.00;;;;;14.96;83.34;100427.63;5031944;28;9358;-69
2023/08/30 08:24:58;;;;;;;;;10.00;9.50;;;;;14.97;83.31;100420.31;5030396;28;9312;-69
2023/08/30 08:27:25;;;;;;;;;10.00;9.00;;;;;15.00;84.01;100423.38;5031670;28;9440;-67
2023/08/30 08:29:52;;;;;;;;;12.00;11.00;;;;;14.99;84.03;100416.31;5030591;28;9462;-69
2023/08/30 08:32:18;;;;;;;;;9.25;8.25;;;;;15.06;83.88;100416.19;5031910;28;9528;-69
2023/08/30 08:34:45;;;;;;;;;9.25;9.00;;;;;15.01;84.08;100411.47;5031897;28;9486;-68
2023/08/30 08:37:11;;;;;;;;;9.00;8.67;;;;;15.03;84.06;100414.78;5030320;28;9409;-69
2023/08/30 08:39:38;;;;;;;;;13.00;9.00;;;;;15.04;83.97;100415.63;5031435;28;9459;-69
2023/08/30 08:42:04;;;;;;;;;9.00;6.33;;;;;15.07;84.01;100410.56;5030293;28;9411;-69
2023/08/30 08:44:32;;;;;;;;;6.33;5.33;;;;;15.06;83.94;100414.31;5031549;28;9232;-67
2023/08/30 08:47:00;;;;;;;;;7.00;7.00;;;;;15.07;84.23;100404.31;5031435;28;9797;-69
2023/08/30 08:49:29;;;;;;;;;9.00;8.33;;;;;15.06;84.22;100408.06;5030193;28;9160;-69
2023/08/30 08:51:56;;;;;;;;;5.00;5.00;;;;;15.07;84.23;100405.13;5031017;28;9286;-67
2023/08/30 08:54:23;;;;;;;;;4.00;4.00;;;;;15.10;84.08;100401.09;5031362;28;9142;-68
2023/08/30 08:56:49;;;;;;;;;6.33;6.33;;;;;15.10;84.09;100411.94;5031079;28;9369;-66
2023/08/30 08:59:16;;;;;;;;;4.00;4.00;;;;;15.09;84.07;100403.00;5031434;28;9226;-68
2023/08/30 09:01:43;;;;;;;;;4.00;4.00;;;;;15.09;84.00;100405.72;5029948;28;9173;-68
2023/08/30 09:04:11;;;;;;;;;5.33;5.33;;;;;15.11;84.24;100410.06;5031134;28;9143;-68
2023/08/30 09:06:43;;;;;;;;;6.67;6.67;;;;;15.06;84.01;100408.88;5029633;28;9314;-68
2023/08/30 09:09:11;;;;;;;;;9.00;6.33;;;;;15.09;84.20;100413.03;5031729;28;9219;-66
2023/08/30 09:11:37;;;;;;;;;7.75;7.75;;;;;15.12;84.33;100412.56;5031055;28;9310;-66
2023/08/30 09:14:17;;;;;;;;;6.00;6.00;;;;;15.11;84.07;100416.34;5030167;28;9402;-68
2023/08/30 09:16:58;;;;;;;;;10.00;8.33;;;;;15.07;83.88;100410.56;5030928;28;9310;-67
2023/08/30 09:19:25;;;;;;;;;4.00;4.00;;;;;15.06;84.56;100410.75;5031158;28;9370;-67
2023/08/30 09:21:55;;;;;;;;;6.00;6.00;;;;;15.10;84.66;100414.66;5030649;28;9287;-68
2023/08/30 09:24:22;;;;;;;;;7.00;7.00;;;;;15.11;84.47;100412.78;5031082;28;9439;-66
2023/08/30 09:26:50;;;;;;;;;4.33;4.33;;;;;15.10;84.59;100411.94;5030786;28;9306;-68
2023/08/30 09:29:19;;;;;;;;;10.00;9.00;;;;;15.08;84.56;100414.09;5030691;28;9300;-68
2023/08/30 09:31:45;;;;;;;;;6.33;6.33;;;;;15.07;84.92;100418.69;5029228;28;9458;-68
2023/08/30 09:34:12;;;;;;;;;9.33;8.00;;;;;15.08;85.07;100430.34;5030982;28;9459;-68
2023/08/30 09:36:40;;;;;;;;;6.67;6.00;;;;;15.06;84.93;100421.59;5030612;28;9504;-68
2023/08/30 09:39:09;;;;;;;;;6.00;5.33;;;;;15.09;85.46;100426.56;5030657;28;9381;-67
2023/08/30 09:41:43;;;;;;;;;8.00;8.00;;;;;15.14;85.35;100418.56;5030525;28;9127;-68
2023/08/30 09:44:10;;;;;;;;;6.00;4.00;;;;;15.21;85.47;100424.69;5030452;28;9352;-68
2023/08/30 09:46:45;;;;;;;;;4.00;4.00;;;;;15.27;85.44;100417.50;5029145;28;10144;-67
2023/08/30 09:49:21;;;;;;;;;4.67;4.67;;;;;15.31;85.73;100411.38;5029424;28;10131;-68
2023/08/30 09:51:49;;;;;;;;;3.33;3.33;;;;;15.36;85.08;100402.53;5030444;28;9405;-68
2023/08/30 09:54:18;;;;;;;;;4.00;4.00;;;;;15.40;85.13;100409.16;5030367;28;9169;-68
2023/08/30 09:57:05;;;;;;;;;4.00;3.00;;;;;15.46;85.13;100405.47;5030290;28;9225;-68
2023/08/30 09:59:32;;;;;;;;;2.67;2.67;;;;;15.50;84.82;100408.53;5030667;28;9081;-68
2023/08/30 10:02:02;;;;;;;;;3.00;3.00;;;;;15.51;84.55;100405.56;5030100;28;9032;-67
2023/08/30 10:04:29;;;;;;;;;3.00;3.00;;;;;15.53;85.05;100405.34;5029213;28;9056;-68
2023/08/30 10:06:59;;;;;;;;;4.00;4.00;;;;;15.57;84.81;100411.94;5028940;28;8924;-68
2023/08/30 10:09:28;;;;;;;;;3.00;3.00;;;;;15.63;84.24;100412.88;5030659;28;9168;-68
2023/08/30 10:11:57;;;;;;;;;4.00;4.00;;;;;15.65;84.14;100411.63;5030056;28;9158;-68
2023/08/30 10:14:24;;;;;;;;;3.00;3.00;;;;;15.67;84.05;100409.47;5030212;28;9154;-68
2023/08/30 10:16:56;;;;;;;;;4.00;3.67;;;;;15.68;84.16;100413.03;5030096;28;9848;-68
2023/08/30 10:19:25;;;;;;;;;2.33;2.33;;;;;15.71;83.62;100416.09;5030245;28;9131;-69
2023/08/30 10:22:04;;;;;;;;;5.00;3.00;;;;;15.72;83.70;100415.03;5031022;28;9139;-68
2023/08/30 10:24:55;;;;;;;;;4.33;4.33;;;;;15.78;83.68;100416.78;5034372;28;8988;-68
2023/08/30 10:27:41;;;;;;;;;6.00;4.67;;;;;15.81;83.58;100424.47;5033046;28;9825;-68
2023/08/30 10:30:09;;;;;;;;;3.67;2.33;;;;;15.88;84.02;100415.34;5034072;28;9841;-69
2023/08/30 10:32:40;;;;;;;;;2.33;2.33;;;;;15.96;84.17;100414.97;5034330;28;8938;-69
2023/08/30 10:35:10;;;;;;;;;3.00;3.00;;;;;16.07;83.86;100416.81;5032581;28;9109;-68
2023/08/30 10:37:36;;;;;;;;;7.00;4.00;;;;;16.10;83.41;100415.53;5033961;28;8928;-68
2023/08/30 10:40:03;;;;;;;;;4.33;3.00;;;;;16.10;83.26;100429.09;5033573;28;8986;-68
2023/08/30 10:42:30;;;;;;;;;3.00;3.00;;;;;16.03;82.51;100430.06;5033850;28;8983;-67
2023/08/30 10:44:59;;;;;;;;;2.00;2.00;;;;;15.98;82.74;100421.81;5033826;28;8897;-68
2023/08/30 10:47:30;;;;;;;;;2.50;2.50;;;;;16.01;82.46;100425.94;5034198;28;8808;-68
2023/08/30 10:49:59;;;;;;;;;2.50;2.50;;;;;16.01;82.62;100421.34;5033612;28;8908;-68
2023/08/30 10:52:27;;;;;;;;;1.25;1.25;;;;;16.07;82.49;100427.69;5033772;28;9535;-68
2023/08/30 10:55:11;;;;;;;;;2.00;2.00;;;;;16.20;82.26;100419.25;5033592;28;9555;-68
2023/08/30 10:57:42;;;;;;;;;2.50;1.25;;;;;16.34;82.63;100421.72;5033869;28;8874;-68
2023/08/30 11:00:17;;;;;;;;;3.25;3.25;;;;;16.47;82.28;100416.78;5033118;28;8894;-68
2023/08/30 11:02:46;;;;;;;;;1.75;1.50;;;;;16.55;82.19;100421.00;5033568;28;8828;-68
2023/08/30 11:05:13;;;;;;;;;4.00;4.00;;;;;16.56;81.33;100433.53;5033307;28;8824;-67
2023/08/30 11:07:39;;;;;;;;;5.25;2.50;;;;;16.50;80.27;100429.06;5033287;28;8816;-68
2023/08/30 11:10:07;;;;;;;;;1.00;1.00;;;;;16.42;79.21;100430.28;5033008;28;8900;-68
2023/08/30 11:12:33;;;;;;;;;1.33;1.33;;;;;16.44;78.99;100430.03;5033411;28;8819;-67
2023/08/30 11:15:00;;;;;;;;;2.75;2.75;;;;;16.52;78.45;100432.34;5032270;28;8920;-68
2023/08/30 11:17:27;;;;;;;;;5.00;3.00;;;;;16.52;77.05;100424.22;5033273;28;8934;-68
2023/08/30 11:20:05;;;;;;;;;2.50;2.50;;;;;16.54;75.54;100432.97;5032781;28;8829;-68
2023/08/30 11:22:31;;;;;;;;;2.00;2.00;;;;;16.66;75.54;100428.28;5033254;28;8939;-67
2023/08/30 11:24:58;;;;;;;;;1.75;1.00;;;;;16.78;75.12;100436.41;5033491;28;8836;-67
2023/08/30 11:27:25;;;;;;;;;2.00;2.00;;;;;16.90;75.21;100436.34;5033073;28;8917;-68
2023/08/30 11:29:51;;;;;;;;;1.75;1.75;;;;;17.01;74.10;100432.69;5032665;28;8825;-66
2023/08/30 11:32:20;;;;;;;;;3.25;3.00;;;;;17.09;73.95;100451.31;5031603;28;8867;-68